createdAt,value
2019-05-02T00:01:08.478Z,32.75
2019-05-02T00:03:41.109Z,32.05
2019-05-02T00:06:09.476Z,31.23
2019-05-02T00:08:38.914Z,32.08
2019-05-02T00:11:10.054Z,31.23
2019-05-02T00:13:39.484Z,38.42
2019-05-02T00:16:13.971Z,34.38
2019-05-02T00:18:40.952Z,31.20
2019-05-02T00:21:11.516Z,34.67
2019-05-02T00:23:40.947Z,33.33
2019-05-02T00:26:10.422Z,29.95
2019-05-02T00:28:42.983Z,32.80
2019-05-02T00:31:11.690Z,31.73
2019-05-02T00:33:42.258Z,31.82
2019-05-02T00:36:11.593Z,33.53
2019-05-02T00:38:40.956Z,36.23
2019-05-02T00:41:10.359Z,35.63
2019-05-02T00:43:39.692Z,36.50
2019-05-02T00:46:09.232Z,33.23
2019-05-02T00:48:40.273Z,31.93
2019-05-02T00:51:09.636Z,32.90
2019-05-02T00:53:39.041Z,33.90
2019-05-02T00:56:09.178Z,31.07
2019-05-02T00:58:39.544Z,29.98
2019-05-02T01:01:10.532Z,38.13
2019-05-02T01:03:41.515Z,31.85
2019-05-02T01:06:14.544Z,33.70
2019-05-02T01:08:42.397Z,32.42
2019-05-02T01:11:12.128Z,32.98
2019-05-02T01:13:41.544Z,31.17
2019-05-02T01:16:15.123Z,35.55
2019-05-02T01:18:42.588Z,38.88
2019-05-02T01:21:11.980Z,39.45
2019-05-02T01:23:41.320Z,35.35
2019-05-02T01:26:12.330Z,35.88
2019-05-02T01:29:01.320Z,32.98
2019-05-02T01:31:35.213Z,32.17
2019-05-02T01:34:06.436Z,36.80
2019-05-02T01:36:41.037Z,34.23
2019-05-02T01:39:11.947Z,25.25
2019-05-02T01:41:41.304Z,34.03
2019-05-02T01:44:10.696Z,35.33
2019-05-02T01:46:40.063Z,40.78
2019-05-02T01:49:09.417Z,36.53
2019-05-02T01:51:41.824Z,38.92
2019-05-02T01:54:11.304Z,34.53
2019-05-02T01:56:40.825Z,39.70
2019-05-02T01:59:10.187Z,41.15
2019-05-02T02:01:39.654Z,37.83
2019-05-02T02:04:08.996Z,40.52
2019-05-02T02:06:38.771Z,38.75
2019-05-02T02:09:09.942Z,34.78
2019-05-02T02:11:40.289Z,35.05
2019-05-02T02:14:13.437Z,35.70
2019-05-02T02:16:40.854Z,34.23
2019-05-02T02:19:14.387Z,34.30
2019-05-02T02:21:51.074Z,37.55
2019-05-02T02:24:28.357Z,35.08
2019-05-02T02:26:57.722Z,40.33
2019-05-02T02:29:27.053Z,46.73
2019-05-02T02:32:19.948Z,41.68
2019-05-02T02:34:46.874Z,56.00
2019-05-02T02:37:16.242Z,58.25
2019-05-02T02:39:48.676Z,53.52
2019-05-02T02:42:16.683Z,38.05
2019-05-02T02:44:50.802Z,35.88
2019-05-02T02:47:21.271Z,34.30
2019-05-02T02:49:56.016Z,37.38
2019-05-02T02:52:21.943Z,32.28
2019-05-02T02:54:51.344Z,40.20
2019-05-02T02:57:26.655Z,37.20
2019-05-02T02:59:51.836Z,35.48
2019-05-02T03:02:21.199Z,38.05
2019-05-02T03:04:50.601Z,38.00
2019-05-02T03:07:25.680Z,36.38
2019-05-02T03:09:51.118Z,41.95
2019-05-02T03:12:22.188Z,36.68
2019-05-02T03:14:56.017Z,34.53
2019-05-02T03:17:28.444Z,34.95
2019-05-02T03:20:01.567Z,44.13
2019-05-02T03:22:27.740Z,40.88
2019-05-02T03:24:57.762Z,43.17
2019-05-02T03:27:29.883Z,44.38
2019-05-02T03:29:58.982Z,47.23
2019-05-02T03:32:34.656Z,40.45
2019-05-02T03:34:59.729Z,43.25
2019-05-02T03:37:29.157Z,41.30
2019-05-02T03:40:00.710Z,46.75
2019-05-02T03:42:29.588Z,45.98
2019-05-02T03:45:04.432Z,44.27
2019-05-02T03:47:30.229Z,44.93
2019-05-02T03:50:00.031Z,33.48
2019-05-02T03:52:29.556Z,36.20
2019-05-02T03:54:59.134Z,35.92
2019-05-02T03:57:33.149Z,37.93
2019-05-02T03:59:59.921Z,36.08
2019-05-02T04:02:29.342Z,34.20
2019-05-02T04:05:00.505Z,39.15
2019-05-02T04:07:39.939Z,31.40
2019-05-02T04:10:02.550Z,34.90
2019-05-02T04:12:32.995Z,35.83
2019-05-02T04:15:02.773Z,37.00
2019-05-02T04:17:35.737Z,39.75
2019-05-02T04:20:09.240Z,33.42
2019-05-02T04:22:42.839Z,36.17
2019-05-02T04:25:08.361Z,31.02
2019-05-02T04:27:37.781Z,33.28
2019-05-02T04:30:11.167Z,35.20
2019-05-02T04:32:42.811Z,28.32
2019-05-02T04:35:09.961Z,29.57
2019-05-02T04:37:41.262Z,33.02
2019-05-02T04:40:12.391Z,27.10
2019-05-02T04:42:41.693Z,27.98
2019-05-02T04:45:21.658Z,31.75
2019-05-02T04:47:42.731Z,33.90
2019-05-02T04:50:18.129Z,35.75
2019-05-02T04:52:51.191Z,31.70
2019-05-02T04:55:24.836Z,27.95
2019-05-02T04:57:50.520Z,28.00
2019-05-02T05:00:21.380Z,27.05
2019-05-02T05:02:53.094Z,24.77
2019-05-02T05:05:25.822Z,24.52
2019-05-02T05:07:52.870Z,29.65
2019-05-02T05:10:22.306Z,31.95
2019-05-02T05:12:51.735Z,30.72
2019-05-02T05:15:35.456Z,34.48
2019-05-02T05:17:52.236Z,32.80
2019-05-02T05:20:21.601Z,37.05
2019-05-02T05:22:50.939Z,35.78
2019-05-02T05:25:34.003Z,35.52
2019-05-02T05:28:22.674Z,33.13
2019-05-02T05:30:52.353Z,31.57
2019-05-02T05:33:21.752Z,30.85
2019-05-02T05:35:52.698Z,34.43
2019-05-02T05:38:22.962Z,31.12
2019-05-02T05:40:53.359Z,35.95
2019-05-02T05:43:22.699Z,31.85
2019-05-02T05:45:56.372Z,31.23
2019-05-02T05:48:23.213Z,37.75
2019-05-02T05:50:52.580Z,30.37
2019-05-02T05:53:24.471Z,32.88
2019-05-02T05:55:58.338Z,34.92
2019-05-02T05:58:24.733Z,32.80
2019-05-02T06:00:56.514Z,31.73
2019-05-02T06:03:27.722Z,37.73
2019-05-02T06:05:57.977Z,34.40
2019-05-02T06:08:27.431Z,35.52
2019-05-02T06:10:56.874Z,31.85
2019-05-02T06:13:26.208Z,33.98
2019-05-02T06:16:02.542Z,36.53
2019-05-02T06:18:28.358Z,29.67
2019-05-02T06:20:58.490Z,31.73
2019-05-02T06:23:31.075Z,34.70
2019-05-02T06:25:59.052Z,31.42
2019-05-02T06:28:28.426Z,35.45
2019-05-02T06:31:02.171Z,33.67
2019-05-02T06:33:30.568Z,32.80
2019-05-02T06:36:01.306Z,30.92
2019-05-02T06:38:31.279Z,29.45
2019-05-02T06:41:00.721Z,35.45
2019-05-02T06:43:30.166Z,33.80
2019-05-02T06:45:59.598Z,38.50
2019-05-02T06:48:29.085Z,36.35
2019-05-02T06:50:58.450Z,31.90
2019-05-02T06:53:28.116Z,34.40
2019-05-02T06:55:57.488Z,33.63
2019-05-02T06:58:26.879Z,33.33
2019-05-02T07:00:58.908Z,37.38
2019-05-02T07:03:27.820Z,35.63
2019-05-02T07:05:58.701Z,35.40
2019-05-02T07:08:28.399Z,34.58
2019-05-02T07:11:01.414Z,39.50
2019-05-02T07:13:28.876Z,33.30
2019-05-02T07:15:59.911Z,36.15
2019-05-02T07:18:30.985Z,33.58
2019-05-02T07:21:00.713Z,44.15
2019-05-02T07:23:30.368Z,36.23
2019-05-02T07:26:00.457Z,35.03
2019-05-02T07:28:30.083Z,39.13
2019-05-02T07:30:59.513Z,35.45
2019-05-02T07:33:32.190Z,35.00
2019-05-02T07:36:01.358Z,33.30
2019-05-02T07:38:30.964Z,35.43
2019-05-02T07:41:00.482Z,35.17
2019-05-02T07:43:29.905Z,36.33
2019-05-02T07:45:59.280Z,33.25
2019-05-02T07:48:28.630Z,33.00
2019-05-02T07:50:58.032Z,35.52
2019-05-02T07:53:27.379Z,34.53
2019-05-02T07:55:56.790Z,40.08
2019-05-02T07:58:26.163Z,33.42
2019-05-02T08:00:55.507Z,32.63
2019-05-02T08:03:29.373Z,31.55
2019-05-02T08:05:58.574Z,29.77
2019-05-02T08:08:29.772Z,31.00
2019-05-02T08:11:01.877Z,32.58
2019-05-02T08:13:31.403Z,33.38
2019-05-02T08:16:00.475Z,30.65
2019-05-02T08:18:30.800Z,33.95
2019-05-02T08:21:01.235Z,33.13
2019-05-02T08:23:30.609Z,35.45
2019-05-02T08:25:59.968Z,35.55
2019-05-02T08:28:30.977Z,30.57
2019-05-02T08:31:00.316Z,34.65
2019-05-02T08:33:34.786Z,33.02
2019-05-02T08:36:00.817Z,33.15
2019-05-02T08:38:30.193Z,33.08
2019-05-02T08:40:59.542Z,30.75
2019-05-02T08:43:29.198Z,32.15
2019-05-02T08:45:58.542Z,35.10
2019-05-02T08:48:27.922Z,29.15
2019-05-02T08:50:57.338Z,34.40
2019-05-02T08:53:27.106Z,29.85
2019-05-02T08:55:56.520Z,30.02
2019-05-02T08:58:25.916Z,29.72
2019-05-02T09:00:55.333Z,29.37
2019-05-02T09:03:24.711Z,30.43
2019-05-02T09:06:05.241Z,24.82
2019-05-02T09:08:25.881Z,30.23
2019-05-02T09:10:55.229Z,26.60
2019-05-02T09:13:29.092Z,27.10
2019-05-02T09:15:55.894Z,25.00
2019-05-02T09:18:30.033Z,24.10
2019-05-02T09:20:56.889Z,28.25
2019-05-02T09:23:27.452Z,28.00
2019-05-02T09:25:57.379Z,21.37
2019-05-02T09:28:26.830Z,24.32
2019-05-02T09:30:57.425Z,21.35
2019-05-02T09:33:27.273Z,24.72
2019-05-02T09:35:56.664Z,22.27
2019-05-02T09:38:26.093Z,20.82
2019-05-02T09:40:56.266Z,22.10
2019-05-02T09:43:29.415Z,19.62
2019-05-02T09:45:57.790Z,20.25
2019-05-02T09:48:27.194Z,15.95
2019-05-02T09:50:57.992Z,15.35
2019-05-02T09:53:27.912Z,16.93
2019-05-02T09:55:58.125Z,17.17
2019-05-02T09:58:27.621Z,14.00
2019-05-02T10:01:01.983Z,18.15
2019-05-02T10:03:32.020Z,13.68
2019-05-02T10:06:03.167Z,13.58
2019-05-02T10:08:32.838Z,11.57
2019-05-02T10:11:02.972Z,11.53
2019-05-02T10:13:33.769Z,14.00
2019-05-02T10:16:03.287Z,12.53
2019-05-02T10:18:33.065Z,13.08
2019-05-02T10:21:03.276Z,11.78
2019-05-02T10:23:34.371Z,14.85
2019-05-02T10:26:04.181Z,15.35
2019-05-02T10:28:33.642Z,11.20
2019-05-02T10:31:03.076Z,12.93
2019-05-02T10:33:37.335Z,10.53
2019-05-02T10:36:03.648Z,14.78
2019-05-02T10:38:33.057Z,13.00
2019-05-02T10:41:04.727Z,10.95
2019-05-02T10:43:33.580Z,14.05
2019-05-02T10:46:04.594Z,10.88
2019-05-02T10:48:36.691Z,16.20
2019-05-02T10:51:26.340Z,14.73
2019-05-02T10:53:56.694Z,17.32
2019-05-02T10:56:26.236Z,13.93
2019-05-02T10:58:55.568Z,12.58
2019-05-02T11:01:26.583Z,12.88
2019-05-02T11:03:57.568Z,15.98
2019-05-02T11:06:26.940Z,11.10
2019-05-02T11:08:56.277Z,16.45
2019-05-02T11:11:25.921Z,12.82
2019-05-02T11:14:00.700Z,8.13
2019-05-02T11:16:35.309Z,9.00
2019-05-02T11:19:06.340Z,9.05
2019-05-02T11:21:35.785Z,17.62
2019-05-02T11:24:05.669Z,10.50
2019-05-02T11:26:35.346Z,9.03
2019-05-02T11:29:05.081Z,9.48
2019-05-02T11:31:34.525Z,11.18
2019-05-02T11:34:03.864Z,7.55
2019-05-02T11:36:33.333Z,7.25
2019-05-02T11:39:14.370Z,9.93
2019-05-02T11:41:33.912Z,7.62
2019-05-02T11:44:03.321Z,11.70
2019-05-02T11:46:33.134Z,10.32
2019-05-02T11:49:02.695Z,10.55
2019-05-02T11:51:32.706Z,9.53
2019-05-02T11:54:05.183Z,12.18
2019-05-02T11:56:33.377Z,10.13
2019-05-02T11:59:03.086Z,13.48
2019-05-02T12:01:37.163Z,8.63
2019-05-02T12:04:07.587Z,12.47
2019-05-02T12:06:35.199Z,9.25
2019-05-02T12:09:08.369Z,16.52
2019-05-02T12:14:06.908Z,9.05
2019-05-02T12:16:36.248Z,10.63
2019-05-02T12:19:11.376Z,8.33
2019-05-02T12:21:39.227Z,10.32
2019-05-02T12:24:08.136Z,8.25
2019-05-02T12:26:37.578Z,11.38
2019-05-02T12:29:07.019Z,10.13
2019-05-02T12:31:37.896Z,8.30
2019-05-02T12:34:07.911Z,8.73
2019-05-02T12:36:37.358Z,10.43
2019-05-02T12:39:08.337Z,15.08
2019-05-02T12:41:37.690Z,8.90
2019-05-02T12:44:07.200Z,11.25
2019-05-02T12:46:36.613Z,14.03
2019-05-02T12:49:06.117Z,7.67
2019-05-02T12:51:36.425Z,9.63
2019-05-02T12:54:06.269Z,11.20
2019-05-02T12:56:35.642Z,9.70
2019-05-02T12:59:05.249Z,10.68
2019-05-02T13:01:34.746Z,12.60
2019-05-02T13:04:05.957Z,7.70
2019-05-02T13:06:37.062Z,10.85
2019-05-02T13:09:09.831Z,9.00
2019-05-02T13:11:52.167Z,10.80
2019-05-02T13:14:23.372Z,11.65
2019-05-02T13:17:01.038Z,11.22
2019-05-02T13:19:37.115Z,10.13
2019-05-02T13:22:03.453Z,10.60
2019-05-02T13:24:42.231Z,12.85
2019-05-02T13:27:13.575Z,9.18
2019-05-02T13:29:43.253Z,10.18
2019-05-02T13:32:18.765Z,12.43
2019-05-02T13:37:22.578Z,10.38
2019-05-02T13:40:12.406Z,9.20
2019-05-02T13:42:41.940Z,7.05
2019-05-02T13:45:32.296Z,11.68
2019-05-02T13:48:02.813Z,10.75
2019-05-02T13:50:33.967Z,11.38
2019-05-02T13:53:03.446Z,10.82
2019-05-02T13:55:43.450Z,8.60
2019-05-02T13:58:13.036Z,7.45
2019-05-02T14:00:46.835Z,9.73
2019-05-02T14:03:16.386Z,6.62
2019-05-02T14:05:50.649Z,11.15
2019-05-02T14:08:27.543Z,7.47
2019-05-02T14:11:07.467Z,10.32
2019-05-02T14:13:37.302Z,8.45
2019-05-02T14:16:06.909Z,12.28
2019-05-02T14:18:36.273Z,8.43
2019-05-02T14:21:05.714Z,11.43
2019-05-02T14:23:35.248Z,8.90
2019-05-02T14:26:04.899Z,11.53
2019-05-02T14:28:36.229Z,11.78
2019-05-02T14:31:05.869Z,9.25
2019-05-02T14:33:36.845Z,7.47
2019-05-02T14:36:06.349Z,15.32
2019-05-02T14:38:37.330Z,9.00
2019-05-02T14:41:08.411Z,10.58
2019-05-02T14:43:53.106Z,12.90
2019-05-02T14:46:22.801Z,9.63
2019-05-02T14:48:52.582Z,10.05
2019-05-02T14:51:27.449Z,11.35
2019-05-02T14:53:57.493Z,10.43
2019-05-02T14:56:46.237Z,15.58
2019-05-02T14:59:15.183Z,12.35
2019-05-02T15:01:47.067Z,8.43
2019-05-02T15:04:16.643Z,9.55
2019-05-02T15:06:47.547Z,10.93
2019-05-02T15:09:22.635Z,12.90
2019-05-02T15:12:02.930Z,9.13
2019-05-02T15:14:35.888Z,15.65
2019-05-02T15:17:06.370Z,12.37
2019-05-02T15:19:35.782Z,9.50
2019-05-02T15:22:05.347Z,12.93
2019-05-02T15:24:37.330Z,19.77
2019-05-02T15:27:12.250Z,10.25
2019-05-02T15:29:37.271Z,9.08
2019-05-02T15:32:25.568Z,9.68
2019-05-02T15:35:02.950Z,10.00
2019-05-02T15:37:35.708Z,12.45
2019-05-02T15:42:37.131Z,15.20
2019-05-02T15:45:08.276Z,13.75
2019-05-02T15:47:41.607Z,13.48
2019-05-02T15:50:14.289Z,13.68
2019-05-02T15:52:42.098Z,13.75
2019-05-02T15:55:11.683Z,14.45
2019-05-02T15:57:45.319Z,14.68
2019-05-02T16:00:21.894Z,16.60
2019-05-02T16:02:45.940Z,15.72
2019-05-02T16:05:15.413Z,14.40
2019-05-02T16:07:46.672Z,18.73
2019-05-02T16:10:16.653Z,21.25
2019-05-02T16:12:47.670Z,11.97
2019-05-02T16:15:21.310Z,16.35
2019-05-02T16:17:48.349Z,20.02
2019-05-02T16:20:19.841Z,19.17
2019-05-02T16:22:49.994Z,18.60
2019-05-02T16:25:20.064Z,17.10
2019-05-02T16:27:52.723Z,15.50
2019-05-02T16:30:24.900Z,14.58
2019-05-02T16:32:55.979Z,14.73
2019-05-02T16:35:27.029Z,17.92
2019-05-02T16:37:56.491Z,17.57
2019-05-02T16:40:32.792Z,15.13
2019-05-02T16:42:58.993Z,16.25
2019-05-02T16:45:28.611Z,16.57
2019-05-02T16:47:59.125Z,25.43
2019-05-02T16:50:35.231Z,19.95
2019-05-02T16:53:02.116Z,18.75
2019-05-02T16:55:32.756Z,23.75
2019-05-02T16:58:06.926Z,15.72
2019-05-02T17:00:37.103Z,17.85
2019-05-02T17:03:04.927Z,19.80
2019-05-02T17:05:34.581Z,20.27
2019-05-02T17:08:05.660Z,21.30
2019-05-02T17:10:42.592Z,19.57
2019-05-02T17:13:12.597Z,19.25
2019-05-02T17:15:42.788Z,19.62
2019-05-02T17:18:15.345Z,17.75
2019-05-02T17:20:46.813Z,23.55
2019-05-02T17:23:14.934Z,17.17
2019-05-02T17:25:44.273Z,14.03
2019-05-02T17:28:13.739Z,19.85
2019-05-02T17:30:43.224Z,21.37
2019-05-02T17:33:16.104Z,29.15
2019-05-02T17:35:49.340Z,25.62
2019-05-02T17:38:19.007Z,22.85
2019-05-02T17:40:46.215Z,18.52
2019-05-02T17:43:15.588Z,15.72
2019-05-02T17:45:45.023Z,18.95
2019-05-02T17:48:16.196Z,18.40
2019-05-02T17:51:03.432Z,16.95
2019-05-02T17:53:40.583Z,16.12
2019-05-02T17:56:04.252Z,17.92
2019-05-02T17:58:34.091Z,17.62
2019-05-02T18:01:05.324Z,18.10
2019-05-02T18:03:35.480Z,19.98
2019-05-02T18:06:07.723Z,25.70
2019-05-02T18:08:36.312Z,20.92
2019-05-02T18:11:05.970Z,17.30
2019-05-02T18:13:35.544Z,23.25
2019-05-02T18:16:07.695Z,21.00
2019-05-02T18:18:37.435Z,27.37
2019-05-02T18:21:07.667Z,23.90
2019-05-02T18:23:37.034Z,23.98
2019-05-02T18:26:06.616Z,20.68
2019-05-02T18:28:46.213Z,17.32
2019-05-02T18:31:07.130Z,22.93
2019-05-02T18:33:41.304Z,16.48
2019-05-02T18:36:07.805Z,16.95
2019-05-02T18:38:37.642Z,15.88
2019-05-02T18:41:08.009Z,22.32
2019-05-02T18:43:43.464Z,14.87
2019-05-02T18:46:08.781Z,18.00
2019-05-02T18:48:42.157Z,17.98
2019-05-02T18:51:09.245Z,32.40
2019-05-02T18:53:38.604Z,17.62
2019-05-02T18:56:08.426Z,45.50
2019-05-02T18:58:41.551Z,19.02
2019-05-02T19:01:15.957Z,23.57
2019-05-02T19:03:42.242Z,20.35
2019-05-02T19:06:11.941Z,18.75
2019-05-02T19:08:46.524Z,20.77
2019-05-02T19:11:15.720Z,19.15
2019-05-02T19:13:45.257Z,24.60
2019-05-02T19:16:19.427Z,20.20
2019-05-02T19:18:48.958Z,20.88
2019-05-02T19:21:17.119Z,20.40
2019-05-02T19:23:46.473Z,22.32
2019-05-02T19:26:15.859Z,18.65
2019-05-02T19:28:56.177Z,18.95
2019-05-02T19:31:26.934Z,17.75
2019-05-02T19:33:56.447Z,21.70
2019-05-02T19:36:27.852Z,17.87
2019-05-02T19:39:05.593Z,23.65
2019-05-02T19:41:28.128Z,16.17
2019-05-02T19:43:57.621Z,21.48
2019-05-02T19:46:34.512Z,31.52
2019-05-02T19:48:58.344Z,23.77
2019-05-02T19:51:28.227Z,21.50
2019-05-02T19:53:59.521Z,15.85
2019-05-02T19:56:32.838Z,15.65
2019-05-02T19:59:00.294Z,20.60
2019-05-02T20:01:29.877Z,22.62
2019-05-02T20:04:02.290Z,20.75
2019-05-02T20:06:32.563Z,21.12
2019-05-02T20:09:06.770Z,18.90
2019-05-02T20:11:34.410Z,24.35
2019-05-02T20:14:08.953Z,22.17
2019-05-02T20:16:44.209Z,55.67
2019-05-02T20:19:09.855Z,187.32
2019-05-02T20:21:42.870Z,252.53
2019-05-02T20:24:17.396Z,65.87
2019-05-02T20:26:46.805Z,32.38
2019-05-02T20:29:14.509Z,22.10
2019-05-02T20:31:51.718Z,18.37
2019-05-02T20:34:22.221Z,70.32
2019-05-02T20:36:51.935Z,30.30
2019-05-02T20:39:22.477Z,27.58
2019-05-02T20:41:53.036Z,21.07
2019-05-02T20:44:22.587Z,19.62
2019-05-02T20:46:51.981Z,20.05
2019-05-02T20:49:21.333Z,18.60
2019-05-02T20:51:51.800Z,20.82
2019-05-02T20:54:21.432Z,21.25
2019-05-02T20:56:52.000Z,19.20
2019-05-02T20:59:21.911Z,21.68
2019-05-02T21:01:52.292Z,27.65
2019-05-02T21:04:22.902Z,22.45
2019-05-02T21:07:02.818Z,23.32
2019-05-02T21:09:36.850Z,17.02
2019-05-02T21:12:07.754Z,21.05
2019-05-02T21:14:37.097Z,22.35
2019-05-02T21:17:06.461Z,18.62
2019-05-02T21:19:35.799Z,18.20
2019-05-02T21:22:09.871Z,20.15
2019-05-02T21:24:39.211Z,19.73
2019-05-02T21:27:08.716Z,21.02
2019-05-02T21:29:38.056Z,16.82
2019-05-02T21:32:07.426Z,19.07
2019-05-02T21:34:36.767Z,17.90
2019-05-02T21:37:06.193Z,20.02
2019-05-02T21:39:35.531Z,23.75
2019-05-02T21:42:05.029Z,22.10
2019-05-02T21:44:34.436Z,19.48
2019-05-02T21:47:05.800Z,21.60
2019-05-02T21:49:42.977Z,19.85
2019-05-02T21:52:14.131Z,20.85
2019-05-02T21:54:45.110Z,21.65
2019-05-02T21:57:16.117Z,21.05
2019-05-02T21:59:45.593Z,21.75
2019-05-02T22:02:15.659Z,24.15
2019-05-02T22:04:45.003Z,19.42
2019-05-02T22:07:14.520Z,23.73
2019-05-02T22:09:43.856Z,22.17
2019-05-02T22:12:13.295Z,21.15
2019-05-02T22:14:42.699Z,22.10
2019-05-02T22:17:12.714Z,24.47
2019-05-02T22:19:42.146Z,22.13
2019-05-02T22:22:12.241Z,23.18
2019-05-02T22:24:42.142Z,22.82
2019-05-02T22:27:12.379Z,24.65
2019-05-02T22:29:43.009Z,18.40
2019-05-02T22:32:12.946Z,18.73
2019-05-02T22:34:45.048Z,21.50
2019-05-02T22:37:15.153Z,20.80
2019-05-02T22:39:46.389Z,19.87
2019-05-02T22:42:16.612Z,21.75
2019-05-02T22:44:45.947Z,24.12
2019-05-02T22:47:15.310Z,22.55
2019-05-02T22:49:44.647Z,21.90
2019-05-02T22:52:14.295Z,23.07
2019-05-02T22:54:44.001Z,20.57
2019-05-02T22:57:14.233Z,23.00
2019-05-02T22:59:43.916Z,23.30
2019-05-02T23:02:13.794Z,22.80
2019-05-02T23:04:43.169Z,24.45
2019-05-02T23:07:12.761Z,23.60
2019-05-02T23:09:43.748Z,21.65
2019-05-02T23:12:13.339Z,22.27
2019-05-02T23:14:42.718Z,21.15
2019-05-02T23:17:12.714Z,28.17
2019-05-02T23:19:42.535Z,20.30
2019-05-02T23:22:12.731Z,27.50
2019-05-02T23:25:00.321Z,27.05
2019-05-02T23:27:43.708Z,23.00
2019-05-02T23:30:15.406Z,24.12
2019-05-02T23:32:44.841Z,24.55
2019-05-02T23:35:14.240Z,25.23
2019-05-02T23:37:44.033Z,25.25
2019-05-02T23:40:14.576Z,25.50
2019-05-02T23:42:43.922Z,26.77
2019-05-02T23:45:13.428Z,24.98
2019-05-02T23:47:43.270Z,25.37
2019-05-02T23:50:12.843Z,25.65
2019-05-02T23:52:42.185Z,26.65
2019-05-02T23:55:12.170Z,28.40
2019-05-02T23:57:42.159Z,29.80
